createdAt,value
2023-05-05T00:02:39.229Z,15.25
2023-05-05T00:07:41.862Z,15.39
2023-05-05T00:12:43.288Z,15.43
2023-05-05T00:17:44.768Z,15.49
2023-05-05T00:22:48.667Z,15.49
2023-05-05T00:27:50.458Z,15.50
2023-05-05T00:32:51.911Z,15.52
2023-05-05T00:37:53.296Z,15.45
2023-05-05T00:42:54.749Z,15.45
2023-05-05T00:47:58.865Z,15.43
2023-05-05T00:53:05.788Z,15.38
2023-05-05T00:58:07.882Z,15.46
2023-05-05T01:03:09.384Z,15.51
2023-05-05T01:08:26.661Z,15.50
2023-05-05T01:13:46.064Z,15.46
2023-05-05T01:19:26.657Z,15.42
2023-05-05T01:24:56.846Z,15.50
2023-05-05T01:30:17.115Z,15.48
2023-05-05T01:35:25.412Z,15.47
2023-05-05T01:40:30.185Z,15.43
2023-05-05T01:45:35.655Z,15.35
2023-05-05T01:50:37.368Z,15.18
2023-05-05T01:55:40.497Z,15.19
2023-05-05T02:00:43.198Z,15.21
2023-05-05T02:05:47.392Z,15.13
2023-05-05T02:10:50.399Z,15.07
2023-05-05T02:15:53.230Z,14.86
2023-05-05T02:20:54.784Z,14.65
2023-05-05T02:26:02.123Z,14.48
2023-05-05T02:31:05.870Z,14.57
2023-05-05T02:36:21.082Z,14.73
2023-05-05T02:41:24.582Z,14.72
2023-05-05T02:46:27.412Z,14.72
2023-05-05T02:51:28.784Z,14.59
2023-05-05T02:56:50.864Z,14.47
2023-05-05T03:02:18.580Z,14.55
2023-05-05T03:07:30.777Z,14.52
2023-05-05T03:12:39.654Z,14.54
2023-05-05T03:17:42.908Z,14.49
2023-05-05T03:22:44.638Z,14.46
2023-05-05T03:27:46.059Z,14.37
2023-05-05T03:32:47.504Z,14.36
2023-05-05T03:37:48.836Z,14.47
2023-05-05T03:42:50.419Z,14.58
2023-05-05T03:47:51.823Z,14.60
2023-05-05T03:52:53.246Z,14.55
2023-05-05T03:57:54.575Z,14.58
2023-05-05T04:02:56.115Z,14.60
2023-05-05T04:07:58.255Z,14.74
2023-05-05T04:12:59.868Z,14.84
2023-05-05T04:18:01.322Z,14.85
2023-05-05T04:23:02.737Z,14.83
2023-05-05T04:28:04.282Z,14.83
2023-05-05T04:33:05.708Z,14.83
2023-05-05T04:38:07.047Z,14.81
2023-05-05T04:43:08.605Z,14.82
2023-05-05T04:48:10.044Z,14.84
2023-05-05T04:53:11.425Z,14.91
2023-05-05T04:58:12.803Z,14.97
2023-05-05T05:03:14.251Z,15.04
2023-05-05T05:08:16.979Z,15.03
2023-05-05T05:13:18.606Z,15.11
2023-05-05T05:18:20.095Z,15.25
2023-05-05T05:23:21.506Z,15.34
2023-05-05T05:28:23.029Z,15.44
2023-05-05T05:33:24.383Z,15.54
2023-05-05T05:38:25.896Z,15.65
2023-05-05T05:43:27.272Z,15.79
2023-05-05T05:48:29.397Z,15.96
2023-05-05T05:53:30.864Z,16.14
2023-05-05T05:58:32.227Z,16.30
2023-05-05T06:03:33.831Z,16.45
2023-05-05T06:08:35.433Z,16.59
2023-05-05T06:13:36.812Z,16.72
2023-05-05T06:18:38.181Z,16.84
2023-05-05T06:23:39.811Z,16.93
2023-05-05T06:28:41.869Z,17.10
2023-05-05T06:33:43.233Z,17.21
2023-05-05T06:38:44.598Z,17.43
2023-05-05T06:43:46.819Z,17.56
2023-05-05T06:48:48.185Z,17.70
2023-05-05T06:53:49.782Z,17.81
2023-05-05T06:58:51.164Z,17.94
2023-05-05T07:03:52.603Z,18.09
2023-05-05T07:08:54.151Z,18.25
2023-05-05T07:13:55.604Z,18.34
2023-05-05T07:18:57.052Z,18.55
2023-05-05T07:23:58.421Z,18.80
2023-05-05T07:28:59.795Z,19.06
2023-05-05T07:34:01.152Z,19.39
2023-05-05T07:39:02.528Z,19.45
2023-05-05T07:44:03.979Z,19.74
2023-05-05T07:49:06.605Z,19.97
2023-05-05T07:54:08.647Z,20.16
2023-05-05T07:59:11.766Z,20.38
2023-05-05T08:04:14.046Z,20.42
2023-05-05T08:09:15.948Z,20.40
2023-05-05T08:14:17.563Z,20.60
2023-05-05T08:19:28.921Z,20.85
2023-05-05T08:24:31.192Z,21.10
2023-05-05T08:29:48.822Z,21.22
2023-05-05T08:34:52.705Z,21.29
2023-05-05T08:39:54.540Z,21.59
2023-05-05T08:44:58.882Z,21.97
2023-05-05T08:50:02.326Z,22.32
2023-05-05T08:55:24.567Z,22.48
2023-05-05T09:00:28.136Z,22.71
2023-05-05T09:05:29.628Z,23.14
2023-05-05T09:10:32.422Z,23.33
2023-05-05T09:15:33.972Z,23.32
2023-05-05T09:20:37.483Z,23.29
2023-05-05T09:25:40.255Z,23.40
2023-05-05T09:30:46.583Z,23.56
2023-05-05T09:35:53.075Z,23.66
2023-05-05T09:40:54.420Z,23.70
2023-05-05T09:46:06.876Z,23.92
2023-05-05T09:51:08.392Z,24.27
2023-05-05T09:56:10.305Z,24.35
2023-05-05T10:01:24.231Z,24.82
2023-05-05T10:06:44.178Z,25.26
2023-05-05T10:11:47.423Z,25.51
2023-05-05T10:16:51.064Z,25.79
2023-05-05T10:21:54.139Z,25.91
2023-05-05T10:26:58.599Z,26.42
2023-05-05T10:32:33.450Z,26.76
2023-05-05T10:37:31.334Z,26.66
2023-05-05T10:42:33.242Z,26.62
2023-05-05T10:47:36.618Z,27.07
2023-05-05T10:53:07.932Z,27.67
2023-05-05T10:58:46.983Z,27.53
2023-05-05T11:04:16.894Z,27.93
2023-05-05T11:09:28.050Z,27.77
2023-05-05T11:14:29.493Z,27.68
2023-05-05T11:19:43.037Z,27.67
2023-05-05T11:24:44.751Z,27.65
2023-05-05T11:30:07.164Z,27.65
2023-05-05T11:35:08.865Z,27.60
2023-05-05T11:40:29.692Z,27.81
2023-05-05T11:45:31.145Z,27.97
2023-05-05T11:50:32.898Z,27.80
2023-05-05T11:55:34.285Z,28.32
2023-05-05T12:00:35.768Z,28.82
2023-05-05T12:05:37.238Z,29.20
2023-05-05T12:10:38.648Z,29.40
2023-05-05T12:15:39.980Z,29.76
2023-05-05T12:20:41.831Z,29.46
2023-05-05T12:25:43.234Z,29.29
2023-05-05T12:30:56.540Z,29.79
2023-05-05T12:35:58.074Z,30.08
2023-05-05T12:40:59.425Z,29.95
2023-05-05T12:46:02.403Z,29.63
2023-05-05T12:51:11.043Z,29.35
2023-05-05T12:56:31.553Z,29.81
2023-05-05T13:01:34.332Z,29.73
2023-05-05T13:06:37.598Z,30.03
2023-05-05T13:11:39.373Z,29.53
2023-05-05T13:16:40.803Z,29.45
2023-05-05T13:21:42.174Z,29.85
2023-05-05T13:26:43.543Z,30.57
2023-05-05T13:31:45.809Z,30.44
2023-05-05T13:36:47.354Z,30.95
2023-05-05T13:41:48.818Z,30.71
2023-05-05T13:46:50.217Z,30.61
2023-05-05T13:51:51.639Z,31.23
2023-05-05T13:56:52.982Z,31.67
2023-05-05T14:01:54.389Z,30.72
2023-05-05T14:06:58.218Z,30.69
2023-05-05T14:11:59.668Z,30.51
2023-05-05T14:17:01.138Z,30.29
2023-05-05T14:22:02.654Z,29.51
2023-05-05T14:27:04.641Z,29.18
2023-05-05T14:32:06.104Z,28.86
2023-05-05T14:37:07.535Z,28.33
2023-05-05T14:42:08.909Z,27.57
2023-05-05T14:47:10.272Z,27.79
2023-05-05T14:52:11.625Z,27.81
2023-05-05T14:57:13.081Z,27.34
2023-05-05T15:02:14.425Z,26.94
2023-05-05T15:07:15.857Z,25.98
2023-05-05T15:12:17.208Z,25.58
2023-05-05T15:17:18.536Z,25.15
2023-05-05T15:22:19.986Z,24.83
2023-05-05T15:27:21.443Z,24.45
2023-05-05T15:32:22.928Z,21.49
2023-05-05T15:37:24.385Z,18.81
2023-05-05T15:42:26.336Z,17.80
2023-05-05T15:47:27.791Z,17.41
2023-05-05T15:52:29.210Z,17.22
2023-05-05T15:57:30.580Z,17.17
2023-05-05T16:02:32.017Z,17.15
2023-05-05T16:07:33.434Z,17.12
2023-05-05T16:12:34.866Z,17.16
2023-05-05T16:17:36.323Z,17.30
2023-05-05T16:22:37.698Z,17.38
2023-05-05T16:27:39.085Z,17.59
2023-05-05T16:32:40.931Z,17.82
2023-05-05T16:37:42.328Z,18.02
2023-05-05T16:42:44.580Z,18.28
2023-05-05T16:47:46.196Z,18.47
2023-05-05T16:52:48.001Z,18.56
2023-05-05T16:57:49.519Z,18.67
2023-05-05T17:02:50.906Z,18.73
2023-05-05T17:07:52.346Z,18.80
2023-05-05T17:12:53.772Z,18.91
2023-05-05T17:17:55.191Z,18.92
2023-05-05T17:22:56.789Z,19.14
2023-05-05T17:27:58.206Z,19.32
2023-05-05T17:32:59.717Z,19.45
2023-05-05T17:38:01.151Z,19.58
2023-05-05T17:43:02.488Z,19.64
2023-05-05T17:48:04.057Z,19.57
2023-05-05T17:53:05.669Z,19.62
2023-05-05T17:58:07.047Z,19.64
2023-05-05T18:03:08.449Z,19.70
2023-05-05T18:08:09.981Z,19.76
2023-05-05T18:13:11.521Z,19.83
2023-05-05T18:18:13.005Z,19.89
2023-05-05T18:23:14.513Z,19.88
2023-05-05T18:28:17.435Z,19.88
2023-05-05T18:33:18.900Z,19.87
2023-05-05T18:38:21.404Z,19.90
2023-05-05T18:43:22.870Z,19.92
2023-05-05T18:48:24.233Z,19.90
2023-05-05T18:53:25.614Z,19.89
2023-05-05T18:58:27.274Z,19.89
2023-05-05T19:03:28.623Z,19.89
2023-05-05T19:08:29.951Z,19.89
2023-05-05T19:13:31.398Z,19.79
2023-05-05T19:18:33.244Z,19.74
2023-05-05T19:23:36.007Z,19.65
2023-05-05T19:28:37.526Z,19.42
2023-05-05T19:33:42.231Z,19.39
2023-05-05T19:38:44.482Z,19.39
2023-05-05T19:43:49.909Z,19.32
2023-05-05T19:48:51.265Z,19.21
2023-05-05T19:53:52.601Z,19.05
2023-05-05T19:59:01.852Z,18.87
2023-05-05T20:04:03.797Z,18.78
2023-05-05T20:09:05.353Z,18.69
2023-05-05T20:14:06.696Z,18.69
2023-05-05T20:19:08.118Z,18.69
2023-05-05T20:24:09.568Z,18.69
2023-05-05T20:29:11.024Z,18.65
2023-05-05T20:34:12.361Z,18.59
2023-05-05T20:39:16.785Z,18.65
2023-05-05T20:44:18.137Z,18.71
2023-05-05T20:49:19.495Z,18.80
2023-05-05T20:54:21.206Z,18.85
2023-05-05T20:59:22.576Z,18.81
2023-05-05T21:04:24.306Z,18.74
2023-05-05T21:09:25.926Z,18.60
2023-05-05T21:14:27.285Z,18.41
2023-05-05T21:19:28.615Z,18.22
2023-05-05T21:24:29.963Z,18.15
2023-05-05T21:29:37.376Z,18.13
2023-05-05T21:34:39.182Z,18.17
2023-05-05T21:39:41.572Z,17.99
2023-05-05T21:44:42.960Z,17.97
2023-05-05T21:49:44.383Z,18.00
2023-05-05T21:54:45.851Z,17.94
2023-05-05T21:59:47.292Z,17.76
2023-05-05T22:04:51.117Z,17.59
2023-05-05T22:09:52.679Z,17.47
2023-05-05T22:14:54.094Z,17.35
2023-05-05T22:19:55.486Z,17.28
2023-05-05T22:24:56.987Z,17.30
2023-05-05T22:29:58.341Z,17.18
2023-05-05T22:35:00.141Z,17.21
2023-05-05T22:40:01.590Z,17.23
2023-05-05T22:45:02.970Z,17.18
2023-05-05T22:50:04.619Z,17.16
2023-05-05T22:55:06.184Z,17.08
2023-05-05T23:00:11.049Z,16.96
2023-05-05T23:05:12.764Z,16.84
2023-05-05T23:10:14.295Z,16.84
2023-05-05T23:15:15.726Z,16.80
2023-05-05T23:20:17.305Z,16.77
2023-05-05T23:25:18.654Z,16.79
2023-05-05T23:30:20.177Z,16.82
2023-05-05T23:35:21.956Z,16.83
2023-05-05T23:40:23.474Z,16.86
2023-05-05T23:45:24.821Z,16.84
2023-05-05T23:50:27.638Z,16.80
2023-05-05T23:55:29.687Z,16.82
